Terminal Aerodrome Forecast
Issued by NWS Springfield, MO

Home | Current Version | Previous Version | Text Only | Print | Product List | Glossary On
Versions: 1 2 3 4 5 6 7 8 9 10 11 12 13 14 15 16 17 18 19 20 21 22 23 24 25 26 27 28
000
FTUS43 KSGF 291720
TAFSGF
TAF
KSGF 291720Z 2918/3018 14018G27KT P6SM BKN070
     FM292200 16013G24KT P6SM -SHRA BKN070
      TEMPO 2922/2924 4SM TSRA BKN040CB
     FM300000 17010G18KT 6SM -TSRA BKN050CB
      TEMPO 3000/3002 4SM TSRA OVC025CB
     FM300200 17008KT P6SM -SHRA SCT090
      TEMPO 3002/3003 4SM TSRA BKN090CB
     FM300300 17007KT P6SM -SHRA VCTS SCT090CB
     FM300600 19006KT 5SM -SHRA VCTS SCT040CB
     FM301100 20007KT 5SM -SHRA VCTS BKN008CB
     FM301200 20007KT 6SM -SHRA OVC008=

USA.gov is the U.S. government's official web portal to all federal, state and local government web resources and services.